Station: Swanbourne  

  Atmospheric Gas Attenuation - ITU Rec 676-11   ----------------- dB/100km -----------------
Date Time Temp RH % AH g/m3 Dew Point Wind Direction Speed kph Gust kph Barometer mB Rainfall Since 9am 24GHz 47GHz 76GHz 122GHz 134GHz 241GHz
08/05 09:30 18.1 66 10.2 11.7 13 24 1013.1 0 22.8 27.2 43.9 115.6 113.6 392.3
08/05 09:20 18.1 66 10.2 11.8 13 15 1013.1 0 22.8 27.2 43.9 115.6 113.6 392.3
08/05 09:10 17.5 68 10.14 11.5 13 19 1013.1 0 22.7 27.3 44.0 115.8 113.7 392.5
08/05 09:00 17.3 68 10.02 11.3 13 22 1013.1 0 22.4 27.1 43.7 114.8 112.4 388.0
08/05 08:50 17.1 68 9.9 11.3 15 20 1013.1 0 22.2 27.0 43.3 113.8 111.1 383.4
08/05 08:40 16.6 69 9.75 10.9 17 22 1013.1 0 21.9 26.9 43.0 112.9 109.8 378.9
08/05 08:30 16.6 70 9.89 11.1 11 22 1013.1 0 22.2 27.1 43.5 114.4 111.7 385.4
08/05 08:20 16.2 70 9.65 10.7 11 15 1013.1 0 21.7 26.9 42.8 112.4 109.1 376.2
08/05 08:10 15.8 71 9.56 10.5 13 19 1013.1 0 21.5 26.9 42.6 112.0 108.4 373.9
08/05 08:00 15.5 72 9.52 10.5 13 19 1013.1 0 21.5 26.9 42.6 112.0 108.3 373.5
08/05 07:50 15.1 73 9.42 10.3 11 13 1013.1 0 21.3 26.8 42.4 111.5 107.6 370.7
08/05 07:40 14.4 75 9.27 10 17 19 1013.1 0 21.0 26.8 42.2 110.9 106.5 367.0
08/05 07:30 14 76 9.17 9.8 11 15 1013.1 0 20.8 26.8 42.0 110.3 105.7 364.1
08/05 07:20 13.9 76 9.11 9.7 11 13 1013.1 0 20.7 26.7 41.8 109.8 105.1 361.8
08/05 07:10 13.6 77 9.06 9.6 9 13 1013.1 0 20.6 26.7 41.8 109.7 104.8 360.8
08/05 07:00 13.6 76 8.94 9.5 9 15 1013.1 0 20.3 26.5 41.3 108.4 103.2 355.2
08/05 06:50 13.6 76 8.94 9.4 9 15 1013.1 0 20.3 26.5 41.3 108.4 103.2 355.2
08/05 06:40 13.7 76 9 9.5 11 15 1013.1 0 20.5 26.6 41.5 108.9 103.8 357.5
08/05 06:30 13.9 75 8.99 9.5 11 15 1013.1 0 20.4 26.5 41.3 108.5 103.4 356.2
08/05 06:20 14 75 9.05 9.6 11 15 1013.1 0 20.5 26.6 41.5 109.0 104.1 358.5
08/05 06:10 14.2 74 9.04 9.6 11 17 1013.1 0 20.5 26.5 41.4 108.6 103.7 357.1
08/05 06:00 14.2 74 9.04 9.6 11 19 1013.1 0 20.5 26.5 41.4 108.6 103.7 357.1
08/05 05:50 14.4 74 9.15 9.8 15 19 1013.1 0 20.7 26.6 41.7 109.5 104.9 361.3
08/05 05:40 14.2 74 9.04 9.6 13 15 1013.1 0 20.5 26.5 41.4 108.6 103.7 357.1
08/05 05:30 14 75 9.05 9.6 11 17 1013.1 0 20.5 26.6 41.5 109.0 104.1 358.5
08/05 05:20 13.6 76 8.94 9.4 9 13 1013.1 0 20.3 26.5 41.3 108.4 103.2 355.2
08/05 05:10 13.9 75 8.99 9.5 9 11 1013.1 0 20.4 26.5 41.3 108.5 103.4 356.2
08/05 05:00 13.7 75 8.88 9.4 7 15 1013.1 0 20.2 26.4 41.0 107.6 102.2 351.9
08/05 04:50 13.9 75 8.99 9.5 9 11 1013.1 0 20.4 26.5 41.3 108.5 103.4 356.2
08/05 04:40 14.2 74 9.04 9.6 9 13 1013.1 0 20.5 26.5 41.4 108.6 103.7 357.1
08/05 04:30 14.1 74 8.98 9.5 9 11 1013.1 0 20.4 26.4 41.2 108.1 103.0 354.8
08/05 04:20 14.3 74 9.09 9.7 7 9 1013.1 0 20.6 26.5 41.5 109.0 104.2 359.0
08/05 04:10 14.4 73 9.02 9.6 7 9 1013.1 0 20.5 26.4 41.2 108.1 103.2 355.3
08/05 04:00 14.5 73 9.08 9.7 9 15 1013.1 0 20.6 26.5 41.4 108.6 103.8 357.6
08/05 03:50 14.6 72 9.01 9.6 7 11 1013.1 0 20.4 26.3 41.0 107.8 102.8 353.9
08/05 03:40 14.9 72 9.18 9.9 7 9 1013.1 0 20.8 26.5 41.6 109.2 104.6 360.4
08/05 03:30 15.2 71 9.22 10 11 20 1013.1 0 20.8 26.5 41.6 109.2 104.8 360.9
08/05 03:20 15.3 69 9.01 9.8 13 17 1013.1 0 20.4 26.1 40.7 106.8 101.9 350.8
08/05 03:10 15.4 70 9.2 9.9 13 15 1013.1 0 20.8 26.4 41.4 108.7 104.2 359.1
08/05 03:00 15.3 71 9.27 10.1 11 22 1013.1 0 20.9 26.5 41.7 109.6 105.3 362.8
08/05 02:50 15.4 70 9.2 9.9 13 17 1013.1 0 20.8 26.4 41.4 108.7 104.2 359.1
08/05 02:40 15.3 69 9.01 9.8 7 11 1013.1 0 20.4 26.1 40.7 106.8 101.9 350.8
08/05 02:30 15.2 71 9.22 10 11 20 1013.1 0 20.8 26.5 41.6 109.2 104.8 360.9
08/05 02:20 15.1 70 9.03 9.8 7 13 1013.1 0 20.4 26.2 40.9 107.3 102.4 352.6
08/05 02:10 15.2 69 8.96 9.7 11 15 1013.1 0 20.3 26.1 40.5 106.4 101.3 348.9
08/05 02:00 15.2 70 9.09 9.8 11 17 1013.1 0 20.6 26.3 41.0 107.8 103.0 354.9
08/05 01:50 15.2 69 8.96 9.7 9 13 1013.1 0 20.3 26.1 40.5 106.4 101.3 348.9
08/05 01:40 15 69 8.85 9.5 7 9 1013.1 0 20.1 25.9 40.2 105.5 100.1 344.8
08/05 01:30 15.2 70 9.09 9.8 9 13 1013.1 0 20.6 26.3 41.0 107.8 103.0 354.9
08/05 01:20 15.5 69 9.12 9.8 9 11 1013.1 0 20.6 26.2 41.0 107.7 103.0 354.9
08/05 01:10 15.9 66 8.94 9.7 15 17 1013.1 0 20.2 25.8 40.1 105.3 100.2 344.9
08/05 01:00 15.9 67 9.07 9.8 13 19 1013.1 0 20.5 26.0 40.6 106.6 101.9 350.9
08/05 00:50 15.9 66 8.94 9.7 13 17 1013.1 0 20.2 25.8 40.1 105.3 100.2 344.9
08/05 00:40 16.1 66 9.05 9.7 15 17 1013.1 0 20.4 25.9 40.4 106.1 101.3 349.1
08/05 00:30 16.4 65 9.07 9.8 17 28 1013.1 0 20.5 25.9 40.3 106.0 101.2 348.6
08/05 00:20 16.6 63 8.9 9.7 19 24 1013.1 0 20.1 25.6 39.6 103.9 98.8 340.1
08/05 00:10 16.6 63 8.9 9.7 19 22 1013.1 0 20.1 25.6 39.6 103.9 98.8 340.1
08/05 00:00 16.8 63 9.01 9.7 17 28 1013.1 0 20.3 25.7 39.9 104.8 99.9 344.2
07/05 23:50 16.9 63 9.06 9.8 13 17 1013.1 0 20.4 25.7 40.1 105.2 100.4 346.0
07/05 23:40 17.1 61 8.88 9.7 15 19 1013.1 0 20.0 25.4 39.3 103.1 97.9 337.1
07/05 23:30 17.2 62 9.08 9.9 19 30 1013.1 0 20.4 25.7 40.0 105.0 100.3 345.6
07/05 23:20 17.4 61 9.04 9.8 19 26 1013.1 0 20.4 25.6 39.7 104.3 99.5 342.9
07/05 23:10 17.6 60 9 9.7 15 24 1013.1 0 20.3 25.4 39.5 103.6 98.8 340.3
07/05 23:00 17.8 60 9.11 9.9 19 28 1013.1 0 20.5 25.5 39.8 104.5 99.9 344.3
07/05 22:50 17.6 60 9 9.7 19 24 1013.1 0 20.3 25.4 39.5 103.6 98.8 340.3
07/05 22:40 17.7 59 8.9 9.6 17 20 1013.1 0 20.0 25.2 39.0 102.5 97.4 335.4
07/05 22:30 18 59 9.06 9.9 19 28 1013.1 0 20.4 25.4 39.5 103.7 99.0 341.2
07/05 22:20 17.9 58 8.86 9.7 15 17 1013.1 0 19.9 25.1 38.8 101.8 96.6 332.8
07/05 22:10 18.2 58 9.01 9.8 19 24 1013.1 0 20.2 25.3 39.2 103.0 98.1 338.2
07/05 22:00 18 58 8.91 9.6 17 30 1013.1 0 20.0 25.2 38.9 102.2 97.1 334.6
07/05 21:50 18 58 8.91 9.6 20 24 1013.1 0 20.0 25.2 38.9 102.2 97.1 334.6
07/05 21:40 18 58 8.91 9.6 13 17 1013.1 0 20.0 25.2 38.9 102.2 97.1 334.6
07/05 21:30 17.6 58 8.7 9.2 11 17 1013.1 0 19.6 25.0 38.3 100.6 95.0 327.0
07/05 21:20 17.7 58 8.75 9.3 7 13 1013.1 0 19.7 25.0 38.5 100.9 95.5 328.8
07/05 21:10 17.8 56 8.5 9.1 11 13 1013.1 0 19.2 24.6 37.5 98.3 92.2 317.4
07/05 21:00 18 57 8.75 9.4 13 20 1013.1 0 19.7 24.9 38.3 100.6 95.1 327.5
07/05 20:50 18.1 57 8.81 9.4 13 19 1013.1 0 19.8 25.0 38.5 101.1 95.7 329.8
07/05 20:40 18.3 55 8.6 9.3 13 17 1013.1 0 19.4 24.6 37.6 98.7 92.9 319.8
07/05 20:30 18.3 57 8.91 9.6 13 28 1013.1 0 20.0 25.1 38.8 101.8 96.8 333.3
07/05 20:20 18.4 57 8.96 9.7 15 20 1013.1 0 20.1 25.1 38.9 102.2 97.3 335.1
07/05 20:10 18.2 57 8.86 9.5 17 20 1013.1 0 19.9 25.0 38.6 101.4 96.3 331.5
07/05 20:00 18.3 57 8.91 9.6 13 26 1013.1 0 20.0 25.1 38.8 101.8 96.8 333.3
07/05 19:50 18.1 58 8.96 9.7 11 13 1013.1 0 20.1 25.2 39.1 102.6 97.6 336.4
07/05 19:40 18.1 58 8.96 9.7 9 15 1013.1 0 20.1 25.2 39.1 102.6 97.6 336.4
07/05 19:30 18.2 58 9.01 9.8 9 15 1013.1 0 20.2 25.3 39.2 103.0 98.1 338.2
07/05 19:20 18.5 57 9.02 10 11 13 1013.1 0 20.3 25.2 39.1 102.7 97.9 337.3
07/05 19:10 18.3 60 9.38 10.4 9 15 1013.1 0 21.0 25.8 40.6 106.6 102.7 354.2
07/05 19:00 18.3 59 9.22 10.2 9 13 1013.1 0 20.7 25.6 40.0 105.0 100.7 347.0
07/05 18:50 18.5 57 9.02 10 13 17 1013.1 0 20.3 25.2 39.1 102.7 97.9 337.3
07/05 18:40 18.5 57 9.02 10 9 13 1013.1 0 20.3 25.2 39.1 102.7 97.9 337.3
07/05 18:30 19 57 9.29 10.3 9 15 1013.1 0 20.8 25.5 39.9 104.8 100.7 347.1
07/05 18:20 19 57 9.29 10.3 11 13 1013.1 0 20.8 25.5 39.9 104.8 100.7 347.1
07/05 18:10 19.4 56 9.34 10.4 11 13 1013.1 0 20.9 25.5 39.9 104.8 100.8 347.5
07/05 18:00 19.6 56 9.45 10.6 11 17 1013.1 0 21.1 25.6 40.2 105.6 101.9 351.5
07/05 17:50 19.6 56 9.45 10.6 9 11 1013.1 0 21.1 25.6 40.2 105.6 101.9 351.5
07/05 17:40 19.9 55 9.45 10.6 9 11 1013.1 0 21.1 25.5 40.1 105.2 101.5 350.2
07/05 17:30 20.4 54 9.55 10.8 11 19 1013.1 0 21.3 25.5 40.2 105.6 102.1 352.3
07/05 17:20 20.4 53 9.38 10.7 9 11 1013.1 0 20.9 25.2 39.5 103.9 100.0 344.9
07/05 17:10 21 52 9.52 11 7 9 1013.1 0 21.2 25.3 39.8 104.5 101.0 348.4
07/05 17:00 21.2 52 9.64 11 15 24 1013.1 0 21.4 25.4 40.1 105.4 102.2 352.7

Last Refresh: 08-May-2026 11:05:32

Bureau of Meteorology